Portada
METAR-TAF:

METAR-TAF

Aeropuertos :

Aeropuerto Internacional Faa'a

Tahití, Polinesia Francesa

latitud: 17-33S, longitud: 149-37W, altitud: 2 m

Observación

El informe se hizo hace 10 horas y 50 minutos, a las 05:00 UTC
Viento 14 kt del sur-suroeste
Temperatura 26°C
Humedad 70%
Presión 1012 hPa
Visibilidad 10 km o más
Escasas nubes a una altura de 2300 ft

METAR: NTAA 210500Z 21014KT 9999 FEW023 26/20 Q1012 NOSIG

Hora: 05:50 (15:50 UTC)

Pronóstico

El informe se hizo hace 10 horas y 50 minutos, a las 05:00 UTC
Pronóstico válido del 21 a las 06 UTC al 22 a las 12 UTC
Viento 14 kt del sur
Visibilidad 10 km o más
Nubes dispersas a una altura de 2000 ft
Nubes dispersas a una altura de 4000 ft
Evolucionando progresivamente
del 21 a las 20 UTC al 21 a las 22 UTC
Viento 16 kt del sur con ráfagas de 26 kt

TAF: NTAA 210500Z 2106/2212 18014KT 9999 SCT020 SCT040 BECMG 2120/2122 17016G26KT

Observaciones y pronósticos meteorológicos de más de 4000 aeropuertos (mensajes METAR y TAF).

Los puntos amarillos y rojos representan las estaciones disponibles.

Ponga el ratón en el punto deseado para ver el nombre de la estación.

Haga clic para ver las observaciones y los pronósticos meteorológicos.

Para cambiar el mapa : haga clic en los botones verdes con una cruz de color negro para hacer un zoom, en el botón verde con un guión para alejar o en las flechas verdes para mapas adyacentes.


METAR-TAF: